sensor_id;sensor_type;location;lat;lon;timestamp;pressure;altitude;pressure_sealevel;temperature;humidity
46412;BME280;32113;42.012;24.870;2023-06-10T00:01:28;98435.16;;;20.85;54.93
46412;BME280;32113;42.012;24.870;2023-06-10T00:03:54;98430.06;;;20.69;55.54
46412;BME280;32113;42.012;24.870;2023-06-10T00:06:19;98431.41;;;20.62;55.80
46412;BME280;32113;42.012;24.870;2023-06-10T00:08:47;98429.59;;;20.77;55.40
46412;BME280;32113;42.012;24.870;2023-06-10T00:11:12;98423.81;;;20.72;55.69
46412;BME280;32113;42.012;24.870;2023-06-10T00:13:38;98427.69;;;20.66;55.75
46412;BME280;32113;42.012;24.870;2023-06-10T00:16:03;98426.00;;;20.51;56.36
46412;BME280;32113;42.012;24.870;2023-06-10T00:18:29;98432.16;;;20.35;56.97
46412;BME280;32113;42.012;24.870;2023-06-10T00:20:57;98428.81;;;20.33;56.97
46412;BME280;32113;42.012;24.870;2023-06-10T00:23:28;98426.88;;;20.22;57.53
46412;BME280;32113;42.012;24.870;2023-06-10T00:25:56;98435.06;;;20.30;57.54
46412;BME280;32113;42.012;24.870;2023-06-10T00:28:21;98437.34;;;20.50;56.88
46412;BME280;32113;42.012;24.870;2023-06-10T00:30:46;98447.59;;;20.67;56.06
46412;BME280;32113;42.012;24.870;2023-06-10T00:33:12;98445.91;;;20.81;55.80
46412;BME280;32113;42.012;24.870;2023-06-10T00:35:37;98436.94;;;20.99;55.33
46412;BME280;32113;42.012;24.870;2023-06-10T00:38:03;98443.78;;;21.15;55.03
46412;BME280;32113;42.012;24.870;2023-06-10T00:40:28;98438.59;;;21.28;54.43
46412;BME280;32113;42.012;24.870;2023-06-10T00:42:53;98436.88;;;21.42;53.84
46412;BME280;32113;42.012;24.870;2023-06-10T00:45:19;98442.00;;;21.43;53.90
46412;BME280;32113;42.012;24.870;2023-06-10T00:47:44;98444.22;;;21.22;54.10
46412;BME280;32113;42.012;24.870;2023-06-10T00:50:10;98438.06;;;21.23;54.08
46412;BME280;32113;42.012;24.870;2023-06-10T00:52:36;98437.84;;;21.13;53.96
46412;BME280;32113;42.012;24.870;2023-06-10T00:55:02;98440.97;;;21.18;54.28
46412;BME280;32113;42.012;24.870;2023-06-10T00:57:27;98438.94;;;21.36;53.82
46412;BME280;32113;42.012;24.870;2023-06-10T00:59:54;98439.81;;;21.50;53.18
46412;BME280;32113;42.012;24.870;2023-06-10T01:02:20;98442.88;;;21.57;52.83
46412;BME280;32113;42.012;24.870;2023-06-10T01:04:45;98440.38;;;21.68;52.42
46412;BME280;32113;42.012;24.870;2023-06-10T01:07:26;98440.63;;;21.78;52.63
46412;BME280;32113;42.012;24.870;2023-06-10T01:13:07;98442.03;;;21.56;52.65
46412;BME280;32113;42.012;24.870;2023-06-10T01:15:37;98440.00;;;21.34;53.06
46412;BME280;32113;42.012;24.870;2023-06-10T01:18:04;98435.63;;;21.34;53.12
46412;BME280;32113;42.012;24.870;2023-06-10T01:20:34;98438.22;;;21.34;53.48
46412;BME280;32113;42.012;24.870;2023-06-10T01:23:02;98441.88;;;21.32;53.59
46412;BME280;32113;42.012;24.870;2023-06-10T01:25:29;98447.03;;;21.19;53.80
46412;BME280;32113;42.012;24.870;2023-06-10T01:31:09;98441.31;;;20.99;54.21
46412;BME280;32113;42.012;24.870;2023-06-10T01:33:31;98441.72;;;20.78;54.54
46412;BME280;32113;42.012;24.870;2023-06-10T01:35:59;98440.88;;;20.63;55.03
46412;BME280;32113;42.012;24.870;2023-06-10T01:38:27;98444.69;;;20.57;55.07
46412;BME280;32113;42.012;24.870;2023-06-10T01:40:55;98439.16;;;20.49;55.37
46412;BME280;32113;42.012;24.870;2023-06-10T01:43:21;98451.78;;;20.70;55.04
46412;BME280;32113;42.012;24.870;2023-06-10T01:45:47;98460.41;;;20.85;55.36
46412;BME280;32113;42.012;24.870;2023-06-10T01:48:13;98451.56;;;21.02;56.97
46412;BME280;32113;42.012;24.870;2023-06-10T01:50:38;98457.84;;;21.12;57.78
46412;BME280;32113;42.012;24.870;2023-06-10T01:53:04;98456.53;;;21.20;55.37
46412;BME280;32113;42.012;24.870;2023-06-10T01:55:33;98457.44;;;21.19;55.64
46412;BME280;32113;42.012;24.870;2023-06-10T01:57:58;98463.03;;;21.27;55.80
46412;BME280;32113;42.012;24.870;2023-06-10T02:00:23;98467.66;;;21.36;55.70
46412;BME280;32113;42.012;24.870;2023-06-10T02:02:49;98465.56;;;21.42;55.74
46412;BME280;32113;42.012;24.870;2023-06-10T02:05:15;98464.34;;;21.47;55.90
46412;BME280;32113;42.012;24.870;2023-06-10T02:07:40;98469.06;;;21.55;54.89
46412;BME280;32113;42.012;24.870;2023-06-10T02:10:06;98470.28;;;21.49;54.07
46412;BME280;32113;42.012;24.870;2023-06-10T02:12:32;98466.53;;;21.53;54.43
46412;BME280;32113;42.012;24.870;2023-06-10T02:14:57;98461.34;;;21.53;54.07
46412;BME280;32113;42.012;24.870;2023-06-10T02:17:23;98466.09;;;21.47;54.02
46412;BME280;32113;42.012;24.870;2023-06-10T02:19:49;98466.63;;;21.11;54.54
46412;BME280;32113;42.012;24.870;2023-06-10T02:22:20;98463.59;;;20.90;54.80
46412;BME280;32113;42.012;24.870;2023-06-10T02:24:46;98463.94;;;20.69;55.08
46412;BME280;32113;42.012;24.870;2023-06-10T02:27:11;98466.84;;;20.65;55.17
46412;BME280;32113;42.012;24.870;2023-06-10T02:29:37;98462.13;;;20.42;55.73
46412;BME280;32113;42.012;24.870;2023-06-10T02:32:02;98468.31;;;20.11;56.84
46412;BME280;32113;42.012;24.870;2023-06-10T02:34:28;98460.72;;;19.91;57.61
46412;BME280;32113;42.012;24.870;2023-06-10T02:36:54;98456.75;;;19.69;58.59
46412;BME280;32113;42.012;24.870;2023-06-10T02:39:20;98462.00;;;19.53;59.13
46412;BME280;32113;42.012;24.870;2023-06-10T02:41:45;98454.47;;;19.49;59.34
46412;BME280;32113;42.012;24.870;2023-06-10T02:44:11;98462.91;;;19.22;60.14
46412;BME280;32113;42.012;24.870;2023-06-10T02:46:36;98457.19;;;19.15;60.72
46412;BME280;32113;42.012;24.870;2023-06-10T02:49:02;98461.56;;;19.14;60.70
46412;BME280;32113;42.012;24.870;2023-06-10T02:51:27;98465.91;;;18.98;61.68
46412;BME280;32113;42.012;24.870;2023-06-10T02:53:52;98460.78;;;18.96;61.74
46412;BME280;32113;42.012;24.870;2023-06-10T02:56:18;98464.97;;;18.83;62.34
46412;BME280;32113;42.012;24.870;2023-06-10T02:58:44;98461.53;;;18.82;62.17
46412;BME280;32113;42.012;24.870;2023-06-10T03:01:09;98471.25;;;18.78;62.36
46412;BME280;32113;42.012;24.870;2023-06-10T03:03:35;98468.41;;;18.83;62.05
46412;BME280;32113;42.012;24.870;2023-06-10T03:06:02;98463.88;;;18.71;63.02
46412;BME280;32113;42.012;24.870;2023-06-10T03:08:28;98464.13;;;18.82;62.38
46412;BME280;32113;42.012;24.870;2023-06-10T03:10:54;98455.06;;;18.89;62.50
46412;BME280;32113;42.012;24.870;2023-06-10T03:13:19;98451.53;;;18.90;62.17
46412;BME280;32113;42.012;24.870;2023-06-10T03:15:45;98478.47;;;18.89;62.56
46412;BME280;32113;42.012;24.870;2023-06-10T03:18:11;98464.53;;;18.90;62.04
46412;BME280;32113;42.012;24.870;2023-06-10T03:20:37;98469.59;;;18.94;61.97
46412;BME280;32113;42.012;24.870;2023-06-10T03:23:04;98459.03;;;18.97;62.24
46412;BME280;32113;42.012;24.870;2023-06-10T03:25:31;98462.53;;;18.96;62.30
46412;BME280;32113;42.012;24.870;2023-06-10T03:27:57;98469.94;;;19.03;62.00
46412;BME280;32113;42.012;24.870;2023-06-10T03:30:22;98465.81;;;18.99;61.95
46412;BME280;32113;42.012;24.870;2023-06-10T03:32:47;98470.34;;;19.12;61.52
46412;BME280;32113;42.012;24.870;2023-06-10T03:35:13;98481.84;;;19.08;61.62
46412;BME280;32113;42.012;24.870;2023-06-10T03:37:40;98481.44;;;19.15;60.93
46412;BME280;32113;42.012;24.870;2023-06-10T03:40:07;98482.34;;;19.30;60.72
46412;BME280;32113;42.012;24.870;2023-06-10T03:42:33;98482.53;;;19.43;60.13
46412;BME280;32113;42.012;24.870;2023-06-10T03:44:58;98482.75;;;19.39;60.19
46412;BME280;32113;42.012;24.870;2023-06-10T03:47:24;98474.28;;;19.51;59.73
46412;BME280;32113;42.012;24.870;2023-06-10T03:49:49;98487.38;;;19.50;59.69
46412;BME280;32113;42.012;24.870;2023-06-10T03:52:15;98482.75;;;19.55;59.65
46412;BME280;32113;42.012;24.870;2023-06-10T03:54:40;98487.56;;;19.77;59.15
46412;BME280;32113;42.012;24.870;2023-06-10T03:57:05;98476.69;;;19.85;58.97
46412;BME280;32113;42.012;24.870;2023-06-10T03:59:31;98475.22;;;19.81;58.87
46412;BME280;32113;42.012;24.870;2023-06-10T04:01:56;98482.91;;;19.82;58.80
46412;BME280;32113;42.012;24.870;2023-06-10T04:04:23;98483.06;;;19.95;58.60
46412;BME280;32113;42.012;24.870;2023-06-10T04:06:48;98470.56;;;20.02;58.40
46412;BME280;32113;42.012;24.870;2023-06-10T04:09:14;98474.56;;;20.22;58.02
46412;BME280;32113;42.012;24.870;2023-06-10T04:11:41;98479.13;;;20.19;57.44
46412;BME280;32113;42.012;24.870;2023-06-10T04:14:07;98485.44;;;20.29;57.04
46412;BME280;32113;42.012;24.870;2023-06-10T04:16:33;98477.53;;;20.31;57.24
46412;BME280;32113;42.012;24.870;2023-06-10T04:18:59;98474.78;;;20.48;57.06
46412;BME280;32113;42.012;24.870;2023-06-10T04:21:26;98473.75;;;20.66;56.42
46412;BME280;32113;42.012;24.870;2023-06-10T04:23:51;98465.84;;;20.53;56.09
46412;BME280;32113;42.012;24.870;2023-06-10T04:26:17;98461.66;;;20.50;56.18
46412;BME280;32113;42.012;24.870;2023-06-10T04:28:43;98463.78;;;20.43;56.46
46412;BME280;32113;42.012;24.870;2023-06-10T04:31:08;98470.22;;;20.38;56.76
46412;BME280;32113;42.012;24.870;2023-06-10T04:33:35;98465.38;;;20.46;56.08
46412;BME280;32113;42.012;24.870;2023-06-10T04:36:00;98466.78;;;20.52;56.46
46412;BME280;32113;42.012;24.870;2023-06-10T04:38:26;98459.59;;;20.55;56.14
46412;BME280;32113;42.012;24.870;2023-06-10T04:40:51;98464.81;;;20.70;55.70
46412;BME280;32113;42.012;24.870;2023-06-10T04:43:17;98455.41;;;20.53;56.25
46412;BME280;32113;42.012;24.870;2023-06-10T04:45:42;98458.38;;;20.46;56.29
46412;BME280;32113;42.012;24.870;2023-06-10T04:48:11;98462.66;;;20.62;56.29
46412;BME280;32113;42.012;24.870;2023-06-10T04:50:37;98463.88;;;20.42;56.94
46412;BME280;32113;42.012;24.870;2023-06-10T04:53:02;98470.50;;;20.33;56.98
46412;BME280;32113;42.012;24.870;2023-06-10T04:55:28;98473.81;;;20.20;57.68
46412;BME280;32113;42.012;24.870;2023-06-10T04:57:54;98474.56;;;20.22;57.60
46412;BME280;32113;42.012;24.870;2023-06-10T05:00:19;98477.72;;;20.28;57.46
46412;BME280;32113;42.012;24.870;2023-06-10T05:02:45;98472.16;;;20.19;57.43
46412;BME280;32113;42.012;24.870;2023-06-10T05:05:15;98469.00;;;20.14;57.81
46412;BME280;32113;42.012;24.870;2023-06-10T05:07:41;98468.06;;;20.30;57.86
46412;BME280;32113;42.012;24.870;2023-06-10T05:10:07;98464.53;;;20.45;57.22
46412;BME280;32113;42.012;24.870;2023-06-10T05:12:32;98464.63;;;20.44;57.19
46412;BME280;32113;42.012;24.870;2023-06-10T05:14:58;98467.13;;;20.60;56.84
46412;BME280;32113;42.012;24.870;2023-06-10T05:17:23;98464.31;;;20.78;56.38
46412;BME280;32113;42.012;24.870;2023-06-10T05:19:50;98463.94;;;20.98;56.40
46412;BME280;32113;42.012;24.870;2023-06-10T05:22:16;98455.50;;;21.22;55.57
46412;BME280;32113;42.012;24.870;2023-06-10T05:24:43;98467.56;;;21.38;55.04
46412;BME280;32113;42.012;24.870;2023-06-10T05:27:09;98465.47;;;21.43;54.49
46412;BME280;32113;42.012;24.870;2023-06-10T05:29:35;98455.88;;;21.16;55.00
46412;BME280;32113;42.012;24.870;2023-06-10T05:32:00;98453.50;;;21.13;55.52
46412;BME280;32113;42.012;24.870;2023-06-10T05:34:29;98454.66;;;21.22;55.30
46412;BME280;32113;42.012;24.870;2023-06-10T05:36:55;98456.31;;;21.23;55.26
46412;BME280;32113;42.012;24.870;2023-06-10T05:39:20;98460.72;;;21.22;55.07
46412;BME280;32113;42.012;24.870;2023-06-10T05:41:45;98464.38;;;21.20;55.05
46412;BME280;32113;42.012;24.870;2023-06-10T05:44:11;98460.81;;;21.21;55.35
46412;BME280;32113;42.012;24.870;2023-06-10T05:46:37;98453.09;;;21.19;55.17
46412;BME280;32113;42.012;24.870;2023-06-10T05:49:02;98459.56;;;21.26;55.37
46412;BME280;32113;42.012;24.870;2023-06-10T05:51:28;98461.59;;;21.36;54.86
46412;BME280;32113;42.012;24.870;2023-06-10T05:53:54;98466.56;;;21.26;55.57
46412;BME280;32113;42.012;24.870;2023-06-10T05:56:20;98467.59;;;21.23;55.73
46412;BME280;32113;42.012;24.870;2023-06-10T05:58:47;98466.75;;;21.23;55.99
46412;BME280;32113;42.012;24.870;2023-06-10T06:01:13;98468.69;;;21.34;55.87
46412;BME280;32113;42.012;24.870;2023-06-10T06:03:38;98474.34;;;21.40;55.89
46412;BME280;32113;42.012;24.870;2023-06-10T06:06:03;98472.00;;;21.63;55.27
46412;BME280;32113;42.012;24.870;2023-06-10T06:08:29;98470.13;;;21.65;54.84
46412;BME280;32113;42.012;24.870;2023-06-10T06:10:55;98481.47;;;21.79;54.53
46412;BME280;32113;42.012;24.870;2023-06-10T06:13:20;98484.19;;;21.77;54.80
46412;BME280;32113;42.012;24.870;2023-06-10T06:15:46;98475.22;;;21.95;54.67
46412;BME280;32113;42.012;24.870;2023-06-10T06:18:11;98483.59;;;22.13;54.66
46412;BME280;32113;42.012;24.870;2023-06-10T06:20:37;98482.25;;;22.33;55.04
46412;BME280;32113;42.012;24.870;2023-06-10T06:23:02;98488.94;;;22.50;54.53
46412;BME280;32113;42.012;24.870;2023-06-10T06:25:27;98480.16;;;22.64;54.39
46412;BME280;32113;42.012;24.870;2023-06-10T06:27:53;98488.16;;;22.87;53.90
46412;BME280;32113;42.012;24.870;2023-06-10T06:30:18;98483.28;;;23.07;53.44
46412;BME280;32113;42.012;24.870;2023-06-10T06:32:44;98470.78;;;23.23;54.08
46412;BME280;32113;42.012;24.870;2023-06-10T06:35:09;98480.53;;;23.34;54.32
46412;BME280;32113;42.012;24.870;2023-06-10T06:37:35;98482.72;;;23.52;54.82
46412;BME280;32113;42.012;24.870;2023-06-10T06:40:01;98481.72;;;23.66;54.74
46412;BME280;32113;42.012;24.870;2023-06-10T06:42:27;98483.19;;;23.82;57.08
46412;BME280;32113;42.012;24.870;2023-06-10T06:44:52;98476.78;;;23.97;56.35
46412;BME280;32113;42.012;24.870;2023-06-10T06:47:18;98471.38;;;24.12;55.80
46412;BME280;32113;42.012;24.870;2023-06-10T06:49:48;98472.72;;;24.29;53.58
46412;BME280;32113;42.012;24.870;2023-06-10T06:52:14;98476.19;;;24.41;54.89
46412;BME280;32113;42.012;24.870;2023-06-10T06:54:40;98466.16;;;24.58;53.34
46412;BME280;32113;42.012;24.870;2023-06-10T06:57:06;98466.50;;;24.64;54.41
46412;BME280;32113;42.012;24.870;2023-06-10T06:59:32;98457.41;;;24.80;52.89
46412;BME280;32113;42.012;24.870;2023-06-10T07:01:57;98459.50;;;24.88;50.50
46412;BME280;32113;42.012;24.870;2023-06-10T07:04:23;98457.56;;;25.01;52.01
46412;BME280;32113;42.012;24.870;2023-06-10T07:06:49;98451.31;;;25.14;51.83
46412;BME280;32113;42.012;24.870;2023-06-10T07:09:14;98454.34;;;25.30;51.40
46412;BME280;32113;42.012;24.870;2023-06-10T07:11:40;98451.44;;;25.45;50.55
46412;BME280;32113;42.012;24.870;2023-06-10T07:14:06;98444.69;;;25.64;50.45
46412;BME280;32113;42.012;24.870;2023-06-10T07:16:32;98435.97;;;25.84;49.77
46412;BME280;32113;42.012;24.870;2023-06-10T07:18:57;98440.22;;;26.07;49.34
46412;BME280;32113;42.012;24.870;2023-06-10T07:21:23;98444.53;;;26.29;48.16
46412;BME280;32113;42.012;24.870;2023-06-10T07:23:48;98437.66;;;26.38;47.61
46412;BME280;32113;42.012;24.870;2023-06-10T07:26:14;98434.28;;;26.57;48.38
46412;BME280;32113;42.012;24.870;2023-06-10T07:28:40;98435.13;;;26.68;46.64
46412;BME280;32113;42.012;24.870;2023-06-10T07:31:07;98425.31;;;26.80;45.33
46412;BME280;32113;42.012;24.870;2023-06-10T07:33:32;98429.19;;;26.75;44.96
46412;BME280;32113;42.012;24.870;2023-06-10T07:35:58;98432.53;;;26.87;45.29
46412;BME280;32113;42.012;24.870;2023-06-10T07:38:25;98437.56;;;27.00;44.67
46412;BME280;32113;42.012;24.870;2023-06-10T07:40:50;98431.06;;;27.14;44.60
46412;BME280;32113;42.012;24.870;2023-06-10T07:43:16;98434.25;;;27.18;44.56
46412;BME280;32113;42.012;24.870;2023-06-10T07:45:42;98433.72;;;27.14;45.02
46412;BME280;32113;42.012;24.870;2023-06-10T07:48:08;98433.00;;;27.12;45.34
46412;BME280;32113;42.012;24.870;2023-06-10T07:50:33;98437.69;;;26.99;44.97
46412;BME280;32113;42.012;24.870;2023-06-10T07:52:59;98430.78;;;26.98;45.25
46412;BME280;32113;42.012;24.870;2023-06-10T07:55:25;98439.94;;;27.04;45.68
46412;BME280;32113;42.012;24.870;2023-06-10T07:57:54;98432.72;;;27.15;45.82
46412;BME280;32113;42.012;24.870;2023-06-10T08:00:20;98432.88;;;27.14;45.51
46412;BME280;32113;42.012;24.870;2023-06-10T08:02:46;98434.25;;;27.18;44.51
46412;BME280;32113;42.012;24.870;2023-06-10T08:05:11;98430.25;;;27.24;44.75
46412;BME280;32113;42.012;24.870;2023-06-10T08:07:37;98431.78;;;27.26;45.20
46412;BME280;32113;42.012;24.870;2023-06-10T08:10:03;98434.41;;;27.26;44.60
46412;BME280;32113;42.012;24.870;2023-06-10T08:12:29;98432.03;;;27.43;45.18
46412;BME280;32113;42.012;24.870;2023-06-10T08:14:55;98430.78;;;27.57;45.23
46412;BME280;32113;42.012;24.870;2023-06-10T08:17:21;98430.09;;;27.75;44.80
46412;BME280;32113;42.012;24.870;2023-06-10T08:19:46;98426.28;;;27.97;44.51
46412;BME280;32113;42.012;24.870;2023-06-10T08:22:12;98434.69;;;28.30;43.52
46412;BME280;32113;42.012;24.870;2023-06-10T08:24:37;98425.78;;;28.59;42.36
46412;BME280;32113;42.012;24.870;2023-06-10T08:27:03;98423.03;;;28.79;42.21
46412;BME280;32113;42.012;24.870;2023-06-10T08:29:29;98433.94;;;28.94;41.71
46412;BME280;32113;42.012;24.870;2023-06-10T08:31:56;98429.22;;;28.88;41.38
46412;BME280;32113;42.012;24.870;2023-06-10T08:34:21;98428.53;;;28.86;41.70
46412;BME280;32113;42.012;24.870;2023-06-10T08:36:47;98428.31;;;28.79;41.04
46412;BME280;32113;42.012;24.870;2023-06-10T08:39:12;98426.88;;;28.67;41.07
46412;BME280;32113;42.012;24.870;2023-06-10T08:41:43;98423.38;;;28.66;41.45
46412;BME280;32113;42.012;24.870;2023-06-10T08:44:10;98427.50;;;28.79;40.98
46412;BME280;32113;42.012;24.870;2023-06-10T08:46:38;98425.97;;;29.04;40.28
46412;BME280;32113;42.012;24.870;2023-06-10T08:49:06;98419.25;;;29.28;40.30
46412;BME280;32113;42.012;24.870;2023-06-10T08:51:35;98419.53;;;29.25;39.48
46412;BME280;32113;42.012;24.870;2023-06-10T08:54:05;98412.81;;;29.31;39.79
46412;BME280;32113;42.012;24.870;2023-06-10T08:56:39;98409.47;;;29.29;37.83
46412;BME280;32113;42.012;24.870;2023-06-10T08:59:05;98406.19;;;29.27;39.00
46412;BME280;32113;42.012;24.870;2023-06-10T09:01:31;98403.22;;;29.30;39.21
46412;BME280;32113;42.012;24.870;2023-06-10T09:03:58;98400.22;;;29.06;36.78
46412;BME280;32113;42.012;24.870;2023-06-10T09:06:25;98406.19;;;28.90;37.66
46412;BME280;32113;42.012;24.870;2023-06-10T09:08:51;98397.31;;;28.81;39.17
46412;BME280;32113;42.012;24.870;2023-06-10T09:11:17;98399.28;;;28.79;38.67
46412;BME280;32113;42.012;24.870;2023-06-10T09:13:42;98391.56;;;28.68;39.16
46412;BME280;32113;42.012;24.870;2023-06-10T09:16:08;98393.88;;;28.53;37.84
46412;BME280;32113;42.012;24.870;2023-06-10T09:18:34;98397.69;;;28.40;37.19
46412;BME280;32113;42.012;24.870;2023-06-10T09:21:00;98391.81;;;28.18;36.72
46412;BME280;32113;42.012;24.870;2023-06-10T09:23:26;98390.72;;;28.11;38.37
46412;BME280;32113;42.012;24.870;2023-06-10T09:25:57;98385.41;;;28.21;37.89
46412;BME280;32113;42.012;24.870;2023-06-10T09:28:23;98375.78;;;28.40;38.41
46412;BME280;32113;42.012;24.870;2023-06-10T09:30:49;98377.53;;;28.49;38.92
46412;BME280;32113;42.012;24.870;2023-06-10T09:33:15;98377.25;;;28.70;39.58
46412;BME280;32113;42.012;24.870;2023-06-10T09:35:49;98376.78;;;28.75;38.60
46412;BME280;32113;42.012;24.870;2023-06-10T09:38:20;98379.47;;;28.47;38.01
46412;BME280;32113;42.012;24.870;2023-06-10T09:40:50;98372.78;;;28.71;38.23
46412;BME280;32113;42.012;24.870;2023-06-10T09:43:16;98368.47;;;28.98;38.23
46412;BME280;32113;42.012;24.870;2023-06-10T09:45:42;98374.41;;;29.18;37.00
46412;BME280;32113;42.012;24.870;2023-06-10T09:48:08;98364.81;;;29.35;36.74
46412;BME280;32113;42.012;24.870;2023-06-10T09:50:34;98368.63;;;29.59;36.99
46412;BME280;32113;42.012;24.870;2023-06-10T09:53:00;98367.25;;;29.73;36.58
46412;BME280;32113;42.012;24.870;2023-06-10T09:55:27;98374.03;;;29.76;36.05
46412;BME280;32113;42.012;24.870;2023-06-10T09:57:54;98367.78;;;29.85;36.26
46412;BME280;32113;42.012;24.870;2023-06-10T10:00:22;98373.84;;;29.51;35.55
46412;BME280;32113;42.012;24.870;2023-06-10T10:02:50;98372.84;;;29.07;36.44
46412;BME280;32113;42.012;24.870;2023-06-10T10:05:17;98364.66;;;28.82;36.17
46412;BME280;32113;42.012;24.870;2023-06-10T10:07:43;98375.50;;;28.79;36.13
46412;BME280;32113;42.012;24.870;2023-06-10T10:10:09;98364.34;;;28.67;36.35
46412;BME280;32113;42.012;24.870;2023-06-10T10:12:37;98368.03;;;28.56;37.59
46412;BME280;32113;42.012;24.870;2023-06-10T10:15:08;98370.66;;;28.56;37.66
46412;BME280;32113;42.012;24.870;2023-06-10T10:17:38;98367.97;;;28.48;36.07
46412;BME280;32113;42.012;24.870;2023-06-10T10:20:07;98368.97;;;28.37;37.01
46412;BME280;32113;42.012;24.870;2023-06-10T10:22:39;98359.97;;;28.30;36.51
46412;BME280;32113;42.012;24.870;2023-06-10T10:25:10;98373.03;;;28.22;37.36
46412;BME280;32113;42.012;24.870;2023-06-10T10:28:10;98376.41;;;28.14;36.35
46412;BME280;32113;42.012;24.870;2023-06-10T10:30:44;98368.16;;;27.99;35.85
46412;BME280;32113;42.012;24.870;2023-06-10T10:33:26;98373.84;;;27.94;36.84
46412;BME280;32113;42.012;24.870;2023-06-10T10:35:54;98362.78;;;27.90;37.32
46412;BME280;32113;42.012;24.870;2023-06-10T10:38:21;98370.41;;;27.93;37.14
46412;BME280;32113;42.012;24.870;2023-06-10T10:40:47;98373.47;;;27.89;37.74
46412;BME280;32113;42.012;24.870;2023-06-10T10:43:13;98366.81;;;27.85;36.52
46412;BME280;32113;42.012;24.870;2023-06-10T10:45:39;98375.97;;;27.80;36.93
46412;BME280;32113;42.012;24.870;2023-06-10T10:48:09;98374.31;;;27.79;37.55
46412;BME280;32113;42.012;24.870;2023-06-10T10:50:38;98375.31;;;27.78;37.35
46412;BME280;32113;42.012;24.870;2023-06-10T10:53:05;98373.66;;;27.67;36.46
46412;BME280;32113;42.012;24.870;2023-06-10T10:55:31;98369.06;;;27.60;37.34
46412;BME280;32113;42.012;24.870;2023-06-10T10:58:06;98381.31;;;27.61;37.91
46412;BME280;32113;42.012;24.870;2023-06-10T11:00:34;98376.13;;;27.59;37.37
46412;BME280;32113;42.012;24.870;2023-06-10T11:03:05;98374.63;;;27.57;36.93
46412;BME280;32113;42.012;24.870;2023-06-10T11:05:37;98378.50;;;27.52;37.60
46412;BME280;32113;42.012;24.870;2023-06-10T11:08:08;98384.47;;;27.54;36.80
46412;BME280;32113;42.012;24.870;2023-06-10T11:10:40;98382.69;;;27.45;38.95
46412;BME280;32113;42.012;24.870;2023-06-10T11:13:07;98381.31;;;27.01;41.97
46412;BME280;32113;42.012;24.870;2023-06-10T11:15:38;98383.63;;;26.24;44.27
46412;BME280;32113;42.012;24.870;2023-06-10T11:18:07;98397.22;;;25.77;46.34
46412;BME280;32113;42.012;24.870;2023-06-10T11:34:01;98391.69;;;24.26;54.56
46412;BME280;32113;42.012;24.870;2023-06-10T11:36:29;98390.97;;;24.12;54.81
46412;BME280;32113;42.012;24.870;2023-06-10T11:39:02;98393.31;;;24.04;55.37
46412;BME280;32113;42.012;24.870;2023-06-10T11:41:29;98389.78;;;24.05;55.45
46412;BME280;32113;42.012;24.870;2023-06-10T11:43:56;98389.63;;;24.07;58.38
46412;BME280;32113;42.012;24.870;2023-06-10T11:46:22;98384.06;;;24.11;61.78
46412;BME280;32113;42.012;24.870;2023-06-10T11:48:56;98381.34;;;24.13;62.33
46412;BME280;32113;42.012;24.870;2023-06-10T11:51:25;98380.22;;;23.93;65.00
46412;BME280;32113;42.012;24.870;2023-06-10T11:53:52;98383.19;;;23.65;65.39
46412;BME280;32113;42.012;24.870;2023-06-10T11:56:21;98387.59;;;23.40;66.72
46412;BME280;32113;42.012;24.870;2023-06-10T12:01:24;98382.41;;;22.91;67.47
46412;BME280;32113;42.012;24.870;2023-06-10T12:04:05;98390.97;;;22.93;69.46
46412;BME280;32113;42.012;24.870;2023-06-10T12:06:46;98386.75;;;23.04;71.48
46412;BME280;32113;42.012;24.870;2023-06-10T12:09:23;98391.31;;;22.89;73.80
46412;BME280;32113;42.012;24.870;2023-06-10T12:11:51;98383.91;;;22.82;75.41
46412;BME280;32113;42.012;24.870;2023-06-10T12:14:50;98380.81;;;22.64;77.34
46412;BME280;32113;42.012;24.870;2023-06-10T12:17:39;98375.94;;;22.60;77.98
46412;BME280;32113;42.012;24.870;2023-06-10T12:20:09;98381.38;;;22.43;78.01
46412;BME280;32113;42.012;24.870;2023-06-10T12:22:49;98374.25;;;22.58;77.89
46412;BME280;32113;42.012;24.870;2023-06-10T12:25:14;98373.03;;;22.38;78.74
46412;BME280;32113;42.012;24.870;2023-06-10T12:27:50;98368.22;;;22.32;80.52
46412;BME280;32113;42.012;24.870;2023-06-10T12:30:19;98369.00;;;22.21;80.63
46412;BME280;32113;42.012;24.870;2023-06-10T12:32:45;98369.50;;;22.26;79.47
46412;BME280;32113;42.012;24.870;2023-06-10T12:35:15;98357.09;;;22.41;77.67
46412;BME280;32113;42.012;24.870;2023-06-10T12:37:42;98361.72;;;22.38;76.79
46412;BME280;32113;42.012;24.870;2023-06-10T12:40:08;98353.88;;;22.38;75.86
46412;BME280;32113;42.012;24.870;2023-06-10T12:42:37;98342.09;;;22.32;76.82
46412;BME280;32113;42.012;24.870;2023-06-10T12:45:04;98343.00;;;22.44;75.70
46412;BME280;32113;42.012;24.870;2023-06-10T12:47:33;98341.44;;;22.41;75.45
46412;BME280;32113;42.012;24.870;2023-06-10T12:50:03;98337.25;;;22.52;74.88
46412;BME280;32113;42.012;24.870;2023-06-10T12:52:29;98332.13;;;22.50;75.91
46412;BME280;32113;42.012;24.870;2023-06-10T12:54:55;98327.44;;;22.55;74.01
46412;BME280;32113;42.012;24.870;2023-06-10T12:57:21;98324.72;;;22.57;74.36
46412;BME280;32113;42.012;24.870;2023-06-10T12:59:47;98325.31;;;22.61;73.79
46412;BME280;32113;42.012;24.870;2023-06-10T13:02:18;98316.41;;;22.88;73.25
46412;BME280;32113;42.012;24.870;2023-06-10T13:04:46;98314.31;;;23.04;72.52
46412;BME280;32113;42.012;24.870;2023-06-10T13:07:11;98320.88;;;23.10;72.01
46412;BME280;32113;42.012;24.870;2023-06-10T13:09:37;98317.50;;;23.32;71.69
46412;BME280;32113;42.012;24.870;2023-06-10T13:12:02;98316.50;;;23.46;71.39